Pagrindinis puslapis
METAR-TAF:

METAR-TAF

Oro uostai :

Nadžafas, Irakas

platuma: 31-59-23N, ilguma: 44-24-15E, Aukštis: 31 m

Dabartinis oras

Ataskaita buvo paskelbta 21 minutes, ne 03:00 UTC
Vėjas 8 kt iš Šiaurės Vakarų
Temperatūra 32°C
Drėgmė 26%
Slėgis 1003 hPa
Matomumas: 8000 m

METAR: ORNI 160300Z 31008KT 8000 NSC 32/10 Q1003

Laikas: 06:21 (03:21 UTC)

Prognozė

Prognozė galioja nuo 16 metu 00 UTC su 16 metu 24 UTC
Vėjas 5 kt iš Vakarų/Šiaurės Vakarų
Matomumas: 8000 m

TAF: ORNI 1600/1624 30005KT 8000 NSC

Orai ataskaitas ir orų prognozės (METAR, TAF).

turimą stotys yra geltonos ir raudonos taškus žemėlapyje.

Perkelti pele per norėdami pamatyti stoties vardą.

Tada spustelėkite, norėdami matyti oro stebėjimo ir prognozės.

Norėdami pakeisti žemėlapį: spustelėkite ant žalios mygtukų su juodo kryžiaus žemyn,; žalią mygtuką su brūkšneliu, jei norite nutolinti; arba žalių rodyklių gretimoms žemėlapius.


METAR-TAF: